createdAt,value
2019-05-23T00:00:45.646Z,14.00
2019-05-23T00:03:16.387Z,14.10
2019-05-23T00:05:55.450Z,14.10
2019-05-23T00:08:26.586Z,14.10
2019-05-23T00:11:21.487Z,14.10
2019-05-23T00:13:56.624Z,14.10
2019-05-23T00:16:27.140Z,14.20
2019-05-23T00:18:56.732Z,14.20
2019-05-23T00:21:25.256Z,14.10
2019-05-23T00:23:54.339Z,14.20
2019-05-23T00:26:23.372Z,14.10
2019-05-23T00:29:09.002Z,14.20
2019-05-23T00:31:34.693Z,14.20
2019-05-23T00:34:04.133Z,14.20
2019-05-23T00:36:34.104Z,14.20
2019-05-23T00:39:06.981Z,14.20
2019-05-23T00:41:39.499Z,14.20
2019-05-23T00:44:08.400Z,14.30
2019-05-23T00:46:37.414Z,14.30
2019-05-23T00:49:08.723Z,14.30
2019-05-23T00:51:37.606Z,14.30
2019-05-23T00:54:06.483Z,14.30
2019-05-23T00:56:36.674Z,14.30
2019-05-23T00:59:06.240Z,14.30
2019-05-23T01:01:37.881Z,14.20
2019-05-23T01:04:06.113Z,14.10
2019-05-23T01:06:35.525Z,14.00
2019-05-23T01:09:07.351Z,14.00
2019-05-23T01:11:37.273Z,14.10
2019-05-23T01:14:06.408Z,14.10
2019-05-23T01:16:36.580Z,14.00
2019-05-23T01:19:06.873Z,14.10
2019-05-23T01:21:55.544Z,14.20
2019-05-23T01:24:43.866Z,14.20
2019-05-23T01:27:14.455Z,14.30
2019-05-23T01:29:49.626Z,14.30
2019-05-23T01:32:37.881Z,14.30
2019-05-23T01:35:09.215Z,14.30
2019-05-23T01:37:38.727Z,14.30
2019-05-23T01:40:08.136Z,14.30
2019-05-23T01:42:37.812Z,14.30
2019-05-23T01:45:08.456Z,14.30
2019-05-23T01:47:37.013Z,14.30
2019-05-23T01:50:07.023Z,14.40
2019-05-23T01:52:36.921Z,14.40
2019-05-23T01:55:07.359Z,14.30
2019-05-23T01:57:35.848Z,14.30
2019-05-23T02:00:10.950Z,14.30
2019-05-23T02:02:40.590Z,14.30
2019-05-23T02:05:10.036Z,14.30
2019-05-23T02:07:38.591Z,14.30
2019-05-23T02:10:07.981Z,14.30
2019-05-23T02:12:37.390Z,14.40
2019-05-23T02:15:07.302Z,14.30
2019-05-23T02:17:37.004Z,14.40
2019-05-23T02:20:06.232Z,14.30
2019-05-23T02:22:35.734Z,14.40
2019-05-23T02:25:06.571Z,14.40
2019-05-23T02:27:35.369Z,14.40
2019-05-23T02:30:07.359Z,14.40
2019-05-23T02:32:38.677Z,14.30
2019-05-23T02:35:07.478Z,14.40
2019-05-23T02:38:02.108Z,14.30
2019-05-23T02:40:40.073Z,14.30
2019-05-23T02:43:10.873Z,14.40
2019-05-23T02:45:46.666Z,14.40
2019-05-23T02:48:25.319Z,14.40
2019-05-23T02:51:02.595Z,14.30
2019-05-23T02:53:34.770Z,14.30
2019-05-23T02:56:09.511Z,14.30
2019-05-23T02:59:20.153Z,14.30
2019-05-23T03:02:53.859Z,14.30
2019-05-23T03:05:25.562Z,14.30
2019-05-23T03:07:55.974Z,14.30
2019-05-23T03:10:27.071Z,14.40
2019-05-23T03:12:57.943Z,14.40
2019-05-23T03:15:27.963Z,14.30
2019-05-23T03:18:01.983Z,14.30
2019-05-23T03:20:30.588Z,14.30
2019-05-23T03:23:07.822Z,14.30
2019-05-23T03:26:35.522Z,14.30
2019-05-23T03:29:04.281Z,14.40
2019-05-23T03:31:45.879Z,14.30
2019-05-23T03:34:15.605Z,14.30
2019-05-23T03:36:45.801Z,14.40
2019-05-23T03:39:15.760Z,14.30
2019-05-23T03:41:44.958Z,14.30
2019-05-23T03:44:14.646Z,14.20
2019-05-23T03:46:46.361Z,14.30
2019-05-23T03:49:15.655Z,14.30
2019-05-23T03:51:44.979Z,14.30
2019-05-23T03:54:14.446Z,14.30
2019-05-23T03:56:46.124Z,14.40
2019-05-23T03:59:15.133Z,14.40
2019-05-23T04:01:48.274Z,14.40
2019-05-23T04:04:14.658Z,14.40
2019-05-23T04:06:44.525Z,14.40
2019-05-23T04:09:13.396Z,14.30
2019-05-23T04:11:41.787Z,14.40
2019-05-23T04:14:10.379Z,14.40
2019-05-23T04:16:40.166Z,14.40
2019-05-23T04:19:08.835Z,14.40
2019-05-23T04:21:37.214Z,14.40
2019-05-23T04:24:05.877Z,14.40
2019-05-23T04:26:34.372Z,14.40
2019-05-23T04:29:03.128Z,14.40
2019-05-23T04:31:32.656Z,14.40
2019-05-23T04:34:01.994Z,14.40
2019-05-23T04:36:32.390Z,14.40
2019-05-23T04:39:01.684Z,14.40
2019-05-23T04:41:30.596Z,14.40
2019-05-23T04:43:59.384Z,14.30
2019-05-23T04:46:28.305Z,14.40
2019-05-23T04:48:57.779Z,14.40
2019-05-23T04:51:26.400Z,14.40
2019-05-23T04:53:54.977Z,14.40
2019-05-23T04:56:24.703Z,14.40
2019-05-23T04:58:53.200Z,14.40
2019-05-23T05:01:23.878Z,14.40
2019-05-23T05:03:53.388Z,14.40
2019-05-23T05:06:22.058Z,14.40
2019-05-23T05:08:51.767Z,14.40
2019-05-23T05:11:21.426Z,14.40
2019-05-23T05:13:51.987Z,14.40
2019-05-23T05:16:20.460Z,14.40
2019-05-23T05:18:49.059Z,14.40
2019-05-23T05:21:17.709Z,14.30
2019-05-23T05:23:46.282Z,14.40
2019-05-23T05:26:21.740Z,14.40
2019-05-23T05:28:51.185Z,14.50
2019-05-23T05:31:21.337Z,14.50
2019-05-23T05:33:50.154Z,14.50
2019-05-23T05:36:18.544Z,14.60
2019-05-23T05:38:47.319Z,14.60
2019-05-23T05:41:16.499Z,14.60
2019-05-23T05:43:45.697Z,14.60
2019-05-23T05:46:14.767Z,14.70
2019-05-23T05:48:43.345Z,14.70
2019-05-23T05:51:12.333Z,14.80
2019-05-23T05:53:41.190Z,14.80
2019-05-23T05:56:09.709Z,14.80
2019-05-23T05:58:38.172Z,14.90
2019-05-23T06:01:10.327Z,14.90
2019-05-23T06:03:40.485Z,14.90
2019-05-23T06:06:17.018Z,14.90
2019-05-23T06:08:46.475Z,14.90
2019-05-23T06:11:15.563Z,14.90
2019-05-23T06:13:44.827Z,15.00
2019-05-23T06:16:13.492Z,15.00
2019-05-23T06:18:42.180Z,15.00
2019-05-23T06:21:11.759Z,15.00
2019-05-23T06:23:40.763Z,15.00
2019-05-23T06:26:09.738Z,15.00
2019-05-23T06:28:39.603Z,15.00
2019-05-23T06:31:08.411Z,15.00
2019-05-23T06:33:37.408Z,15.10
2019-05-23T06:36:06.616Z,15.00
2019-05-23T06:38:35.163Z,15.00
2019-05-23T06:41:05.151Z,15.00
2019-05-23T06:43:35.359Z,15.10
2019-05-23T06:46:04.441Z,15.00
2019-05-23T06:48:33.790Z,15.10
2019-05-23T06:51:02.177Z,15.10
2019-05-23T06:53:30.751Z,15.10
2019-05-23T06:55:59.230Z,15.20
2019-05-23T06:58:28.389Z,15.20
2019-05-23T07:00:56.855Z,15.20
2019-05-23T07:03:41.678Z,15.10
2019-05-23T07:05:58.266Z,15.10
2019-05-23T07:08:29.542Z,15.20
2019-05-23T07:10:58.135Z,15.20
2019-05-23T07:13:29.072Z,15.30
2019-05-23T07:15:57.819Z,15.30
2019-05-23T07:18:26.677Z,15.40
2019-05-23T07:20:55.740Z,15.40
2019-05-23T07:23:24.253Z,15.40
2019-05-23T07:25:52.750Z,15.50
2019-05-23T07:28:21.330Z,15.50
2019-05-23T07:30:50.393Z,15.50
2019-05-23T07:33:18.823Z,15.50
2019-05-23T07:35:47.309Z,15.60
2019-05-23T07:38:15.984Z,15.70
2019-05-23T07:40:45.250Z,15.70
2019-05-23T07:43:14.132Z,15.80
2019-05-23T07:45:48.644Z,15.80
2019-05-23T07:48:17.533Z,15.80
2019-05-23T07:50:46.003Z,15.80
2019-05-23T07:53:23.189Z,15.80
2019-05-23T07:55:53.519Z,15.90
2019-05-23T07:58:22.011Z,15.90
2019-05-23T08:00:55.795Z,15.90
2019-05-23T08:03:28.642Z,16.00
2019-05-23T08:05:57.124Z,16.10
2019-05-23T08:08:26.740Z,16.10
2019-05-23T08:10:55.303Z,16.20
2019-05-23T08:13:24.741Z,16.20
2019-05-23T08:15:53.510Z,16.20
2019-05-23T08:18:22.080Z,16.20
2019-05-23T08:20:50.549Z,16.30
2019-05-23T08:23:19.175Z,16.40
2019-05-23T08:25:49.590Z,16.50
2019-05-23T08:28:18.864Z,16.50
2019-05-23T08:30:47.494Z,16.60
2019-05-23T08:33:16.097Z,16.70
2019-05-23T08:35:45.025Z,16.80
2019-05-23T08:38:13.915Z,16.80
2019-05-23T08:40:42.907Z,16.80
2019-05-23T08:43:11.529Z,16.90
2019-05-23T08:45:40.189Z,17.00
2019-05-23T08:48:09.365Z,17.10
2019-05-23T08:50:39.627Z,17.20
2019-05-23T08:53:09.316Z,17.30
2019-05-23T08:55:40.210Z,17.30
2019-05-23T08:58:11.382Z,17.40
2019-05-23T09:00:43.262Z,17.40
2019-05-23T09:03:12.175Z,17.40
2019-05-23T09:05:40.759Z,17.50
2019-05-23T09:08:11.049Z,17.50
2019-05-23T09:10:40.386Z,17.60
2019-05-23T09:13:08.908Z,17.60
2019-05-23T09:15:37.625Z,17.70
2019-05-23T09:18:07.360Z,17.70
2019-05-23T09:20:36.718Z,17.70
2019-05-23T09:23:05.331Z,17.80
2019-05-23T09:25:34.525Z,17.90
2019-05-23T09:28:03.343Z,17.90
2019-05-23T09:30:32.926Z,17.90
2019-05-23T09:33:02.533Z,17.90
2019-05-23T09:35:31.718Z,17.90
2019-05-23T09:38:00.122Z,17.90
2019-05-23T09:40:30.464Z,17.90
2019-05-23T09:42:59.436Z,17.90
2019-05-23T09:45:27.795Z,17.90
2019-05-23T09:47:56.170Z,17.90
2019-05-23T09:50:25.016Z,17.90
2019-05-23T09:52:53.592Z,18.00
2019-05-23T09:55:22.804Z,18.00
2019-05-23T09:57:51.760Z,18.10
2019-05-23T10:00:23.164Z,18.20
2019-05-23T10:02:51.823Z,18.20
2019-05-23T10:05:40.189Z,18.30
2019-05-23T10:07:50.877Z,18.40
2019-05-23T10:10:19.606Z,18.40
2019-05-23T10:12:48.168Z,18.50
2019-05-23T10:15:32.542Z,18.50
2019-05-23T10:18:01.275Z,18.70
2019-05-23T10:20:31.496Z,18.80
2019-05-23T10:23:00.033Z,18.90
2019-05-23T10:25:28.486Z,18.90
2019-05-23T10:27:57.466Z,18.90
2019-05-23T10:30:26.047Z,19.00
2019-05-23T10:32:54.570Z,19.10
2019-05-23T10:35:23.430Z,19.10
2019-05-23T10:37:51.854Z,19.20
2019-05-23T10:40:20.719Z,19.20
2019-05-23T10:42:49.096Z,19.30
2019-05-23T10:45:17.787Z,19.30
2019-05-23T10:47:46.155Z,19.30
2019-05-23T10:50:16.150Z,19.40
2019-05-23T10:52:44.989Z,19.40
2019-05-23T10:55:13.468Z,19.40
2019-05-23T10:57:41.833Z,19.50
2019-05-23T11:00:21.323Z,19.50
2019-05-23T11:02:50.123Z,19.60
2019-05-23T11:05:19.255Z,19.70
2019-05-23T11:07:48.341Z,19.80
2019-05-23T11:10:19.215Z,20.00
2019-05-23T11:12:48.282Z,20.20
2019-05-23T11:15:16.943Z,20.30
2019-05-23T11:17:45.628Z,20.40
2019-05-23T11:20:16.771Z,20.60
2019-05-23T11:22:45.489Z,20.70
2019-05-23T11:25:16.751Z,20.80
2019-05-23T11:27:45.824Z,20.80
2019-05-23T11:30:32.353Z,20.70
2019-05-23T11:33:00.943Z,20.70
2019-05-23T11:35:29.516Z,20.70
2019-05-23T11:37:57.985Z,20.90
2019-05-23T11:40:26.921Z,21.00
2019-05-23T11:42:55.418Z,21.10
2019-05-23T11:45:25.704Z,21.20
2019-05-23T11:47:54.569Z,21.30
2019-05-23T11:50:22.967Z,21.40
2019-05-23T11:52:55.705Z,21.50
2019-05-23T11:55:22.635Z,21.50
2019-05-23T11:57:53.534Z,21.50
2019-05-23T12:01:20.636Z,21.50
2019-05-23T12:03:44.803Z,21.50
2019-05-23T12:06:15.316Z,21.60
2019-05-23T12:08:44.033Z,21.60
2019-05-23T12:11:13.264Z,21.60
2019-05-23T12:13:41.909Z,21.50
2019-05-23T12:16:10.446Z,21.60
2019-05-23T12:18:38.936Z,21.70
2019-05-23T12:21:07.302Z,21.70
2019-05-23T12:23:35.819Z,21.70
2019-05-23T12:26:06.016Z,21.80
2019-05-23T12:28:34.482Z,22.00
2019-05-23T12:31:04.131Z,22.10
2019-05-23T12:33:32.656Z,22.40
2019-05-23T12:36:01.047Z,22.40
2019-05-23T12:38:29.612Z,22.60
2019-05-23T12:40:58.304Z,22.70
2019-05-23T12:43:26.773Z,23.00
2019-05-23T12:45:56.966Z,23.10
2019-05-23T12:48:39.020Z,23.30
2019-05-23T12:51:07.778Z,23.50
2019-05-23T12:53:36.375Z,23.60
2019-05-23T12:56:05.367Z,23.80
2019-05-23T12:58:34.540Z,24.10
2019-05-23T13:01:05.937Z,24.10
2019-05-23T13:03:34.809Z,24.30
2019-05-23T13:06:04.379Z,24.50
2019-05-23T13:08:33.062Z,24.70
2019-05-23T13:11:01.416Z,25.00
2019-05-23T13:13:30.361Z,25.20
2019-05-23T13:15:59.073Z,25.30
2019-05-23T13:18:27.920Z,25.30
2019-05-23T13:20:59.171Z,25.30
2019-05-23T13:23:27.140Z,25.20
2019-05-23T13:25:55.620Z,25.20
2019-05-23T13:28:24.297Z,25.00
2019-05-23T13:30:52.829Z,24.90
2019-05-23T13:33:21.505Z,24.90
2019-05-23T13:35:50.628Z,24.80
2019-05-23T13:38:19.346Z,24.80
2019-05-23T13:40:47.678Z,24.70
2019-05-23T13:43:16.121Z,24.80
2019-05-23T13:45:44.943Z,24.80
2019-05-23T13:48:13.329Z,24.90
2019-05-23T13:50:42.245Z,24.80
2019-05-23T13:53:11.897Z,24.80
2019-05-23T13:55:40.257Z,24.70
2019-05-23T13:58:09.054Z,24.60
2019-05-23T14:00:38.139Z,24.50
2019-05-23T14:03:07.556Z,24.50
2019-05-23T14:05:37.006Z,24.40
2019-05-23T14:08:13.141Z,24.40
2019-05-23T14:10:39.003Z,24.50
2019-05-23T14:13:07.913Z,24.40
2019-05-23T14:15:42.508Z,24.40
2019-05-23T14:18:14.760Z,24.40
2019-05-23T14:20:43.593Z,24.40
2019-05-23T14:23:21.156Z,24.30
2019-05-23T14:25:49.866Z,24.20
2019-05-23T14:28:18.632Z,24.10
2019-05-23T14:31:04.032Z,24.10
2019-05-23T14:33:41.204Z,24.00
2019-05-23T14:36:16.630Z,23.80
2019-05-23T14:38:45.809Z,23.80
2019-05-23T14:41:14.208Z,23.80
2019-05-23T14:43:45.592Z,23.90
2019-05-23T14:46:16.236Z,24.00
2019-05-23T14:48:57.634Z,24.10
2019-05-23T14:51:39.709Z,24.20
2019-05-23T14:54:18.309Z,24.30
2019-05-23T14:56:47.013Z,24.10
2019-05-23T14:59:15.715Z,24.10
2019-05-23T15:01:44.685Z,24.00
2019-05-23T15:04:14.318Z,23.90
2019-05-23T15:06:42.903Z,23.80
2019-05-23T15:09:11.272Z,23.70
2019-05-23T15:11:40.251Z,23.60
2019-05-23T15:14:08.785Z,23.50
2019-05-23T15:16:37.366Z,23.50
2019-05-23T15:19:05.962Z,23.40
2019-05-23T15:21:34.445Z,23.30
2019-05-23T15:24:03.236Z,23.20
2019-05-23T15:26:31.732Z,23.20
2019-05-23T15:29:00.144Z,23.00
2019-05-23T15:31:30.540Z,22.90
2019-05-23T15:33:59.017Z,22.80
2019-05-23T15:36:27.472Z,22.70
2019-05-23T15:39:09.127Z,22.70
2019-05-23T15:41:26.423Z,22.60
2019-05-23T15:43:54.859Z,22.50
2019-05-23T15:46:23.426Z,22.40
2019-05-23T15:48:51.903Z,22.40
2019-05-23T15:51:24.904Z,22.40
2019-05-23T15:54:11.838Z,22.30
2019-05-23T15:56:54.059Z,22.30
2019-05-23T15:59:36.608Z,22.20
2019-05-23T16:02:17.752Z,22.10
2019-05-23T16:04:46.324Z,22.20
2019-05-23T16:07:16.512Z,22.10
2019-05-23T16:09:45.699Z,22.00
2019-05-23T16:12:14.622Z,22.00
2019-05-23T16:14:43.693Z,21.90
2019-05-23T16:17:13.088Z,21.80
2019-05-23T16:19:42.198Z,21.70
2019-05-23T16:22:11.310Z,21.70
2019-05-23T16:24:39.756Z,21.60
2019-05-23T16:27:08.464Z,21.50
2019-05-23T16:29:37.759Z,21.50
2019-05-23T16:32:06.385Z,21.40
2019-05-23T16:34:35.441Z,21.20
2019-05-23T16:37:05.606Z,21.10
2019-05-23T16:39:46.879Z,21.00
2019-05-23T16:42:07.055Z,21.00
2019-05-23T16:44:35.524Z,20.90
2019-05-23T16:47:03.978Z,20.90
2019-05-23T16:49:32.519Z,20.90
2019-05-23T16:52:01.082Z,20.80
2019-05-23T16:54:34.488Z,20.60
2019-05-23T16:57:14.095Z,20.50
2019-05-23T16:59:47.745Z,20.40
2019-05-23T17:02:41.723Z,20.40
2019-05-23T17:05:29.703Z,20.30
2019-05-23T17:08:17.977Z,20.20
2019-05-23T17:10:55.076Z,20.20
2019-05-23T17:13:34.319Z,20.10
2019-05-23T17:16:15.379Z,20.20
2019-05-23T17:19:07.035Z,20.10
2019-05-23T17:21:53.776Z,20.00
2019-05-23T17:24:31.202Z,20.00
2019-05-23T17:27:25.246Z,19.90
2019-05-23T17:30:00.944Z,19.90
2019-05-23T17:32:33.097Z,19.80
2019-05-23T17:35:01.733Z,19.80
2019-05-23T17:37:31.347Z,19.70
2019-05-23T17:39:59.853Z,19.60
2019-05-23T17:42:28.345Z,19.60
2019-05-23T17:44:56.873Z,19.50
2019-05-23T17:47:25.513Z,19.50
2019-05-23T17:49:55.358Z,19.40
2019-05-23T17:52:23.860Z,19.40
2019-05-23T17:54:52.985Z,19.40
2019-05-23T17:57:23.304Z,19.40
2019-05-23T17:59:51.895Z,19.40
2019-05-23T18:02:21.871Z,19.40
2019-05-23T18:04:50.604Z,19.40
2019-05-23T18:07:19.521Z,19.30
2019-05-23T18:09:51.268Z,19.30
2019-05-23T18:12:20.561Z,19.30
2019-05-23T18:14:50.344Z,19.20
2019-05-23T18:17:19.590Z,19.20
2019-05-23T18:19:47.960Z,19.20
2019-05-23T18:22:17.876Z,19.10
2019-05-23T18:24:46.933Z,19.10
2019-05-23T18:27:19.168Z,19.00
2019-05-23T18:29:49.725Z,18.90
2019-05-23T18:32:22.303Z,18.90
2019-05-23T18:34:50.811Z,18.90
2019-05-23T18:37:19.292Z,18.80
2019-05-23T18:39:47.788Z,18.80
2019-05-23T18:42:16.496Z,18.70
2019-05-23T18:44:45.199Z,18.70
2019-05-23T18:47:21.505Z,18.60
2019-05-23T18:49:49.962Z,18.50
2019-05-23T18:52:18.955Z,18.50
2019-05-23T18:54:47.872Z,18.40
2019-05-23T18:57:16.382Z,18.40
2019-05-23T18:59:44.893Z,18.30
2019-05-23T19:02:13.888Z,18.30
2019-05-23T19:04:42.675Z,18.30
2019-05-23T19:07:13.168Z,18.30
2019-05-23T19:09:42.120Z,18.20
2019-05-23T19:12:11.099Z,18.20
2019-05-23T19:14:40.638Z,18.20
2019-05-23T19:17:09.242Z,18.20
2019-05-23T19:19:38.484Z,18.20
2019-05-23T19:22:07.380Z,18.20
2019-05-23T19:24:36.273Z,18.10
2019-05-23T19:27:05.252Z,18.10
2019-05-23T19:29:34.091Z,18.10
2019-05-23T19:32:05.333Z,18.10
2019-05-23T19:34:34.289Z,18.00
2019-05-23T19:37:05.225Z,18.00
2019-05-23T19:39:34.713Z,18.00
2019-05-23T19:42:03.691Z,18.00
2019-05-23T19:44:32.109Z,18.00
2019-05-23T19:47:01.286Z,18.00
2019-05-23T19:49:30.503Z,18.00
2019-05-23T19:51:59.174Z,17.90
2019-05-23T19:54:27.895Z,17.90
2019-05-23T19:56:56.736Z,17.90
2019-05-23T19:59:25.183Z,17.80
2019-05-23T20:02:16.842Z,17.70
2019-05-23T20:04:53.631Z,17.70
2019-05-23T20:07:25.224Z,17.70
2019-05-23T20:09:57.280Z,17.60
2019-05-23T20:12:24.845Z,17.70
2019-05-23T20:14:53.347Z,17.60
2019-05-23T20:17:22.158Z,17.60
2019-05-23T20:19:50.878Z,17.50
2019-05-23T20:22:19.583Z,17.50
2019-05-23T20:24:48.149Z,17.50
2019-05-23T20:27:16.790Z,17.50
2019-05-23T20:29:45.230Z,17.50
2019-05-23T20:32:14.555Z,17.40
2019-05-23T20:34:43.090Z,17.40
2019-05-23T20:37:12.315Z,17.30
2019-05-23T20:39:40.698Z,17.20
2019-05-23T20:42:11.868Z,17.20
2019-05-23T20:44:39.442Z,17.10
2019-05-23T20:47:08.432Z,17.10
2019-05-23T20:49:37.007Z,17.10
2019-05-23T20:52:07.119Z,17.00
2019-05-23T20:54:35.945Z,17.00
2019-05-23T20:57:04.764Z,17.00
2019-05-23T20:59:33.487Z,17.00
2019-05-23T21:02:02.787Z,16.90
2019-05-23T21:04:31.911Z,17.00
2019-05-23T21:07:00.389Z,16.90
2019-05-23T21:09:28.904Z,16.90
2019-05-23T21:11:57.311Z,16.80
2019-05-23T21:14:25.924Z,16.80
2019-05-23T21:16:54.297Z,16.90
2019-05-23T21:19:22.879Z,16.90
2019-05-23T21:21:51.369Z,16.80
2019-05-23T21:24:20.243Z,16.80
2019-05-23T21:26:48.644Z,16.80
2019-05-23T21:29:17.018Z,16.80
2019-05-23T21:31:45.627Z,16.70
2019-05-23T21:34:14.112Z,16.70
2019-05-23T21:36:42.683Z,16.70
2019-05-23T21:39:12.292Z,16.70
2019-05-23T21:41:42.460Z,16.70
2019-05-23T21:44:10.905Z,16.60
2019-05-23T21:46:39.474Z,16.60
2019-05-23T21:49:07.868Z,16.60
2019-05-23T21:51:38.150Z,16.60
2019-05-23T21:54:06.758Z,16.60
2019-05-23T21:56:35.136Z,16.50
2019-05-23T21:59:03.816Z,16.50
2019-05-23T22:01:54.659Z,16.50
2019-05-23T22:04:28.193Z,16.50
2019-05-23T22:06:58.411Z,16.40
2019-05-23T22:09:28.826Z,16.40
2019-05-23T22:11:57.572Z,16.40
2019-05-23T22:14:26.017Z,16.40
2019-05-23T22:16:54.623Z,16.30
2019-05-23T22:19:24.304Z,16.20
2019-05-23T22:21:52.980Z,16.20
2019-05-23T22:24:21.600Z,16.20
2019-05-23T22:26:50.159Z,16.10
2019-05-23T22:29:18.739Z,16.20
2019-05-23T22:31:47.234Z,16.10
2019-05-23T22:34:41.181Z,16.10
2019-05-23T22:37:16.177Z,16.00
2019-05-23T22:39:44.706Z,16.00
2019-05-23T22:42:13.672Z,15.90
2019-05-23T22:44:42.414Z,16.00
2019-05-23T22:47:10.879Z,16.00
2019-05-23T22:49:39.470Z,16.10
2019-05-23T22:52:07.860Z,16.00
2019-05-23T22:54:36.338Z,15.90
2019-05-23T22:57:04.932Z,15.90
2019-05-23T22:59:33.509Z,15.90
2019-05-23T23:02:03.905Z,15.90
2019-05-23T23:04:32.301Z,15.90
2019-05-23T23:07:00.777Z,15.80
2019-05-23T23:09:29.246Z,15.80
2019-05-23T23:11:57.775Z,15.80
2019-05-23T23:14:26.430Z,15.80
2019-05-23T23:16:55.133Z,15.70
2019-05-23T23:19:23.514Z,15.70
2019-05-23T23:21:52.002Z,15.70
2019-05-23T23:24:20.668Z,15.70
2019-05-23T23:26:49.280Z,15.70
2019-05-23T23:29:17.672Z,15.70
2019-05-23T23:31:47.947Z,15.70
2019-05-23T23:34:16.617Z,15.70
2019-05-23T23:36:45.087Z,15.70
2019-05-23T23:39:13.454Z,15.70
2019-05-23T23:41:41.943Z,15.60
2019-05-23T23:44:10.957Z,15.60
2019-05-23T23:46:57.778Z,15.60
2019-05-23T23:49:44.790Z,15.50
2019-05-23T23:52:31.715Z,15.60
2019-05-23T23:55:18.569Z,15.50
2019-05-23T23:57:58.842Z,15.60
